createdAt,value
2019-03-15T00:02:16.830Z,7.40
2019-03-15T00:04:46.531Z,7.50
2019-03-15T00:07:15.797Z,7.60
2019-03-15T00:09:45.076Z,7.40
2019-03-15T00:12:14.350Z,7.40
2019-03-15T00:14:43.638Z,7.40
2019-03-15T00:17:13.223Z,7.40
2019-03-15T00:19:42.797Z,7.50
2019-03-15T00:22:12.043Z,7.50
2019-03-15T00:24:41.314Z,7.50
2019-03-15T00:27:10.688Z,7.40
2019-03-15T00:29:39.940Z,7.30
2019-03-15T00:32:10.484Z,7.40
2019-03-15T00:34:39.752Z,7.30
2019-03-15T00:37:09.033Z,7.30
2019-03-15T00:39:38.307Z,7.50
2019-03-15T00:42:08.418Z,7.30
2019-03-15T00:44:37.721Z,7.10
2019-03-15T00:47:07.018Z,7.10
2019-03-15T00:49:36.287Z,7.10
2019-03-15T00:52:05.575Z,7.30
2019-03-15T00:54:34.840Z,7.20
2019-03-15T00:57:04.117Z,7.10
2019-03-15T00:59:33.383Z,7.10
2019-03-15T01:02:02.672Z,7.10
2019-03-15T01:04:31.927Z,7.10
2019-03-15T01:07:01.485Z,7.20
2019-03-15T01:09:30.751Z,7.20
2019-03-15T01:12:00.302Z,7.20
2019-03-15T01:14:29.542Z,7.20
2019-03-15T01:16:59.489Z,7.30
2019-03-15T01:19:29.753Z,7.10
2019-03-15T01:21:59.335Z,7.20
2019-03-15T01:24:29.047Z,7.20
2019-03-15T01:26:58.319Z,7.20
2019-03-15T01:29:27.589Z,7.20
2019-03-15T01:31:56.852Z,7.30
2019-03-15T01:34:26.159Z,7.50
2019-03-15T01:36:55.672Z,7.30
2019-03-15T01:39:24.944Z,7.50
2019-03-15T01:41:54.559Z,7.50
2019-03-15T01:44:23.838Z,7.50
2019-03-15T01:46:53.111Z,7.40
2019-03-15T01:49:22.387Z,7.40
2019-03-15T01:51:51.656Z,7.50
2019-03-15T01:54:20.932Z,7.40
2019-03-15T01:56:50.206Z,7.50
2019-03-15T01:59:19.482Z,7.70
2019-03-15T02:01:48.777Z,7.60
2019-03-15T02:04:18.476Z,7.90
2019-03-15T02:06:47.993Z,7.80
2019-03-15T02:09:18.604Z,7.80
2019-03-15T02:11:48.323Z,8.00
2019-03-15T02:14:17.602Z,7.90
2019-03-15T02:16:47.222Z,7.90
2019-03-15T02:19:16.499Z,7.90
2019-03-15T02:21:45.779Z,8.00
2019-03-15T02:24:15.054Z,8.10
2019-03-15T02:26:44.324Z,8.10
2019-03-15T02:29:13.739Z,8.10
2019-03-15T02:31:42.950Z,8.00
2019-03-15T02:34:12.733Z,8.00
2019-03-15T02:36:42.008Z,8.00
2019-03-15T02:39:11.287Z,8.00
2019-03-15T02:41:40.554Z,8.00
2019-03-15T02:44:09.835Z,8.10
2019-03-15T02:46:39.446Z,8.10
2019-03-15T02:49:08.724Z,8.40
2019-03-15T02:51:37.991Z,8.30
2019-03-15T02:54:07.272Z,8.40
2019-03-15T02:56:36.535Z,8.20
2019-03-15T02:59:05.816Z,8.20
2019-03-15T03:01:35.090Z,8.40
2019-03-15T03:04:04.372Z,8.40
2019-03-15T03:06:34.047Z,8.60
2019-03-15T03:09:03.970Z,8.30
2019-03-15T03:11:33.576Z,8.30
2019-03-15T03:14:04.291Z,8.40
2019-03-15T03:16:33.810Z,8.30
2019-03-15T03:19:03.086Z,8.00
2019-03-15T03:21:32.359Z,7.60
2019-03-15T03:24:01.642Z,7.60
2019-03-15T03:26:30.914Z,7.60
2019-03-15T03:29:00.191Z,7.40
2019-03-15T03:31:29.730Z,7.50
2019-03-15T03:33:58.994Z,7.40
2019-03-15T03:36:28.278Z,7.30
2019-03-15T03:38:57.620Z,7.20
2019-03-15T03:41:26.896Z,7.20
2019-03-15T03:43:56.173Z,7.20
2019-03-15T03:46:25.726Z,7.10
2019-03-15T03:48:55.004Z,7.00
2019-03-15T03:51:24.641Z,7.10
2019-03-15T03:53:54.358Z,6.90
2019-03-15T03:56:23.631Z,6.80
2019-03-15T03:58:52.980Z,6.90
2019-03-15T04:01:22.254Z,6.80
2019-03-15T04:03:51.528Z,6.80
2019-03-15T04:06:20.795Z,6.90
2019-03-15T04:08:50.074Z,6.80
2019-03-15T04:11:19.348Z,6.80
2019-03-15T04:13:48.626Z,6.70
2019-03-15T04:16:17.895Z,6.70
2019-03-15T04:18:47.618Z,6.60
2019-03-15T04:21:16.890Z,6.60
2019-03-15T04:23:46.168Z,6.70
2019-03-15T04:26:16.273Z,6.80
2019-03-15T04:28:45.881Z,6.80
2019-03-15T04:31:15.153Z,6.80
2019-03-15T04:33:44.430Z,6.90
2019-03-15T04:36:13.704Z,7.00
2019-03-15T04:38:42.975Z,7.00
2019-03-15T04:41:12.307Z,7.10
2019-03-15T04:43:41.866Z,7.10
2019-03-15T04:46:11.136Z,7.20
2019-03-15T04:48:40.402Z,7.30
2019-03-15T04:51:10.119Z,7.30
2019-03-15T04:53:39.395Z,7.30
2019-03-15T04:56:08.664Z,7.40
2019-03-15T04:58:37.928Z,7.40
2019-03-15T05:01:07.194Z,7.50
2019-03-15T05:03:36.795Z,7.40
2019-03-15T05:06:06.068Z,7.40
2019-03-15T05:08:35.601Z,7.40
2019-03-15T05:11:04.956Z,7.50
2019-03-15T05:13:34.348Z,7.50
2019-03-15T05:16:03.847Z,7.50
2019-03-15T05:18:33.127Z,7.60
2019-03-15T05:21:02.412Z,7.60
2019-03-15T05:23:31.958Z,7.60
2019-03-15T05:26:01.230Z,7.50
2019-03-15T05:28:30.510Z,7.50
2019-03-15T05:30:59.779Z,7.60
2019-03-15T05:33:29.327Z,7.60
2019-03-15T05:35:58.937Z,7.60
2019-03-15T05:38:28.543Z,7.50
2019-03-15T05:40:58.151Z,7.50
2019-03-15T05:43:27.427Z,7.50
2019-03-15T05:45:56.965Z,7.60
2019-03-15T05:48:26.483Z,7.50
2019-03-15T05:50:55.765Z,7.50
2019-03-15T05:53:25.040Z,7.60
2019-03-15T05:55:54.314Z,7.70
2019-03-15T05:58:24.545Z,7.60
2019-03-15T06:00:53.840Z,7.50
2019-03-15T06:03:23.082Z,7.60
2019-03-15T06:05:52.697Z,7.70
2019-03-15T06:08:22.309Z,7.70
2019-03-15T06:10:54.724Z,7.80
2019-03-15T06:13:22.890Z,7.80
2019-03-15T06:15:52.580Z,7.90
2019-03-15T06:18:21.864Z,7.90
2019-03-15T06:20:51.476Z,7.90
2019-03-15T06:23:22.002Z,7.90
2019-03-15T06:25:51.286Z,7.90
2019-03-15T06:28:20.546Z,7.90
2019-03-15T06:30:50.115Z,8.00
2019-03-15T06:33:19.743Z,8.00
2019-03-15T06:35:49.420Z,8.00
2019-03-15T06:38:19.239Z,8.10
2019-03-15T06:40:48.535Z,8.00
2019-03-15T06:43:18.111Z,8.00
2019-03-15T06:45:47.850Z,8.00
2019-03-15T06:48:17.455Z,7.90
2019-03-15T06:50:47.064Z,8.00
2019-03-15T06:53:16.586Z,7.90
2019-03-15T06:55:46.177Z,8.00
2019-03-15T06:58:15.785Z,7.90
2019-03-15T07:00:45.422Z,8.00
2019-03-15T07:03:15.000Z,8.00
2019-03-15T07:05:44.607Z,8.10
2019-03-15T07:08:14.141Z,8.10
2019-03-15T07:10:44.367Z,8.10
2019-03-15T07:13:13.766Z,8.10
2019-03-15T07:15:44.498Z,8.00
2019-03-15T07:18:14.212Z,8.10
2019-03-15T07:20:43.743Z,8.00
2019-03-15T07:23:13.027Z,8.00
2019-03-15T07:25:42.595Z,8.10
2019-03-15T07:28:12.136Z,8.10
2019-03-15T07:30:41.710Z,8.10
2019-03-15T07:33:11.013Z,8.20
2019-03-15T07:35:40.281Z,8.20
2019-03-15T07:38:09.561Z,8.20
2019-03-15T07:40:39.138Z,8.20
2019-03-15T07:43:09.030Z,8.30
2019-03-15T07:45:38.757Z,8.10
2019-03-15T07:48:21.270Z,8.10
2019-03-15T07:50:39.728Z,8.20
2019-03-15T07:53:09.307Z,8.20
2019-03-15T07:55:39.058Z,8.30
2019-03-15T07:58:08.622Z,8.30
2019-03-15T08:00:38.362Z,8.20
2019-03-15T08:03:07.615Z,8.20
2019-03-15T08:05:37.028Z,8.30
2019-03-15T08:08:07.431Z,8.30
2019-03-15T08:10:36.703Z,8.40
2019-03-15T08:13:06.252Z,8.30
2019-03-15T08:15:35.553Z,8.50
2019-03-15T08:18:04.822Z,8.40
2019-03-15T08:20:34.171Z,8.50
2019-03-15T08:23:03.444Z,8.50
2019-03-15T08:25:32.712Z,8.50
2019-03-15T08:28:02.241Z,8.70
2019-03-15T08:30:31.510Z,8.80
2019-03-15T08:33:10.078Z,8.90
2019-03-15T08:35:32.341Z,8.90
2019-03-15T08:38:01.615Z,8.80
2019-03-15T08:40:30.920Z,8.60
2019-03-15T08:43:00.450Z,8.60
2019-03-15T08:45:29.946Z,8.40
2019-03-15T08:47:59.546Z,8.50
2019-03-15T08:50:29.166Z,8.70
2019-03-15T08:52:58.429Z,8.80
2019-03-15T08:55:27.692Z,8.70
2019-03-15T08:57:56.969Z,9.00
2019-03-15T09:00:26.259Z,9.10
2019-03-15T09:02:55.535Z,9.20
2019-03-15T09:05:25.190Z,9.40
2019-03-15T09:07:54.491Z,9.50
2019-03-15T09:10:24.390Z,9.40
2019-03-15T09:12:53.681Z,9.40
2019-03-15T09:15:22.964Z,9.30
2019-03-15T09:17:52.790Z,9.30
2019-03-15T09:20:22.516Z,9.30
2019-03-15T09:22:51.838Z,9.20
2019-03-15T09:25:21.314Z,9.20
2019-03-15T09:27:50.911Z,9.30
2019-03-15T09:30:24.548Z,9.50
2019-03-15T09:32:51.511Z,9.50
2019-03-15T09:35:20.788Z,9.60
2019-03-15T09:37:50.053Z,9.70
2019-03-15T09:40:19.315Z,9.60
2019-03-15T09:42:48.866Z,9.80
2019-03-15T09:45:19.343Z,9.70
2019-03-15T09:47:49.002Z,9.70
2019-03-15T09:50:33.249Z,9.50
2019-03-15T09:52:49.708Z,9.60
2019-03-15T09:55:31.893Z,9.60
2019-03-15T09:57:50.207Z,9.70
2019-03-15T10:00:20.711Z,9.90
2019-03-15T10:02:50.047Z,10.00
2019-03-15T10:05:19.319Z,10.10
2019-03-15T10:07:48.586Z,10.10
2019-03-15T10:10:20.613Z,10.10
2019-03-15T10:12:49.892Z,9.80
2019-03-15T10:15:19.427Z,9.90
2019-03-15T10:17:48.762Z,9.90
2019-03-15T10:20:18.067Z,10.10
2019-03-15T10:23:03.984Z,10.20
2019-03-15T10:25:18.542Z,10.30
2019-03-15T10:27:47.817Z,10.40
2019-03-15T10:30:19.481Z,10.40
2019-03-15T10:32:48.862Z,10.50
2019-03-15T10:35:18.369Z,10.60
2019-03-15T10:37:47.679Z,10.60
2019-03-15T10:40:22.900Z,10.70
2019-03-15T10:42:55.350Z,10.80
2019-03-15T10:45:23.174Z,10.70
2019-03-15T10:47:52.908Z,10.80
2019-03-15T10:50:22.516Z,11.00
2019-03-15T10:52:53.830Z,11.10
2019-03-15T10:55:22.803Z,11.30
2019-03-15T10:57:52.080Z,11.30
2019-03-15T11:00:22.290Z,11.20
2019-03-15T11:02:52.401Z,11.30
2019-03-15T11:05:21.673Z,11.20
2019-03-15T11:07:51.309Z,11.20
2019-03-15T11:10:20.919Z,11.20
2019-03-15T11:12:50.632Z,11.10
2019-03-15T11:15:19.907Z,11.00
2019-03-15T11:17:49.182Z,11.10
2019-03-15T11:20:18.463Z,11.20
2019-03-15T11:22:47.731Z,11.10
2019-03-15T11:25:17.014Z,11.10
2019-03-15T11:27:46.289Z,11.10
2019-03-15T11:30:16.013Z,11.10
2019-03-15T11:32:45.294Z,11.10
2019-03-15T11:35:14.645Z,11.20
2019-03-15T11:37:43.919Z,11.20
2019-03-15T11:40:18.853Z,11.20
2019-03-15T11:42:47.208Z,11.30
2019-03-15T11:45:16.845Z,11.40
2019-03-15T11:48:01.871Z,11.40
2019-03-15T11:50:22.139Z,11.60
2019-03-15T11:52:51.826Z,11.50
2019-03-15T11:55:21.110Z,11.60
2019-03-15T11:57:50.722Z,11.80
2019-03-15T12:00:20.454Z,11.90
2019-03-15T12:02:50.039Z,11.90
2019-03-15T12:05:19.324Z,12.00
2019-03-15T12:07:48.611Z,12.10
2019-03-15T12:10:18.617Z,12.10
2019-03-15T12:12:48.174Z,12.20
2019-03-15T12:15:19.417Z,12.30
2019-03-15T12:17:49.016Z,12.40
2019-03-15T12:20:18.292Z,12.20
2019-03-15T12:22:47.565Z,12.20
2019-03-15T12:25:17.121Z,12.20
2019-03-15T12:27:46.400Z,12.30
2019-03-15T12:30:17.105Z,12.20
2019-03-15T12:32:46.389Z,12.60
2019-03-15T12:35:16.514Z,12.40
2019-03-15T12:37:45.784Z,12.40
2019-03-15T12:40:19.442Z,12.50
2019-03-15T12:42:48.721Z,12.50
2019-03-15T12:45:18.319Z,12.40
2019-03-15T12:47:47.570Z,12.30
2019-03-15T12:50:17.490Z,12.50
2019-03-15T12:52:48.210Z,12.50
2019-03-15T12:55:18.149Z,12.50
2019-03-15T12:57:49.250Z,12.40
2019-03-15T13:00:22.019Z,12.30
2019-03-15T13:02:51.300Z,12.20
2019-03-15T13:05:20.594Z,12.20
2019-03-15T13:07:50.220Z,12.50
2019-03-15T13:10:21.569Z,12.60
2019-03-15T13:12:50.846Z,12.70
2019-03-15T13:15:20.135Z,12.50
2019-03-15T13:17:49.478Z,12.70
2019-03-15T13:20:19.079Z,12.80
2019-03-15T13:22:48.334Z,12.60
2019-03-15T13:25:17.949Z,12.50
2019-03-15T13:27:47.599Z,12.50
2019-03-15T13:30:19.744Z,12.40
2019-03-15T13:32:49.432Z,12.50
2019-03-15T13:35:18.718Z,12.60
2019-03-15T13:37:47.993Z,13.00
2019-03-15T13:40:20.718Z,13.10
2019-03-15T13:42:49.998Z,13.00
2019-03-15T13:45:19.360Z,13.10
2019-03-15T13:47:48.925Z,13.00
2019-03-15T13:50:21.359Z,12.70
2019-03-15T13:52:50.624Z,12.70
2019-03-15T13:55:19.924Z,12.90
2019-03-15T13:57:49.201Z,13.00
2019-03-15T14:00:19.793Z,13.10
2019-03-15T14:02:49.074Z,12.90
2019-03-15T14:05:18.343Z,13.00
2019-03-15T14:07:47.616Z,13.00
2019-03-15T14:10:17.830Z,12.90
2019-03-15T14:12:47.108Z,12.90
2019-03-15T14:15:19.838Z,13.00
2019-03-15T14:17:49.120Z,12.90
2019-03-15T14:20:18.846Z,13.10
2019-03-15T14:22:48.122Z,13.10
2019-03-15T14:25:23.291Z,13.00
2019-03-15T14:27:52.880Z,12.90
2019-03-15T14:30:22.170Z,12.90
2019-03-15T14:32:51.505Z,12.90
2019-03-15T14:35:20.789Z,12.90
2019-03-15T14:37:50.063Z,12.90
2019-03-15T14:40:19.478Z,12.90
2019-03-15T14:42:49.213Z,12.90
2019-03-15T14:45:18.604Z,12.90
2019-03-15T14:47:47.897Z,13.00
2019-03-15T14:50:17.509Z,12.90
2019-03-15T14:52:46.787Z,12.90
2019-03-15T14:55:17.254Z,12.70
2019-03-15T14:57:52.428Z,13.00
2019-03-15T15:00:19.848Z,12.90
2019-03-15T15:02:49.104Z,13.10
2019-03-15T15:05:18.376Z,13.20
2019-03-15T15:07:47.669Z,13.00
2019-03-15T15:10:18.408Z,12.90
2019-03-15T15:12:47.975Z,12.80
2019-03-15T15:15:20.891Z,13.00
2019-03-15T15:17:50.170Z,13.20
2019-03-15T15:20:19.456Z,13.10
2019-03-15T15:22:48.729Z,13.10
2019-03-15T15:25:18.740Z,13.10
2019-03-15T15:27:48.012Z,13.10
2019-03-15T15:30:18.502Z,13.00
2019-03-15T15:32:47.783Z,13.00
2019-03-15T15:35:17.052Z,13.20
2019-03-15T15:37:46.331Z,13.20
2019-03-15T15:40:17.969Z,13.20
2019-03-15T15:42:47.263Z,13.20
2019-03-15T15:45:16.830Z,13.20
2019-03-15T15:47:46.104Z,13.20
2019-03-15T15:50:16.620Z,13.20
2019-03-15T15:52:45.912Z,13.30
2019-03-15T15:55:16.496Z,13.30
2019-03-15T15:57:45.775Z,13.30
2019-03-15T16:00:18.889Z,13.30
2019-03-15T16:02:48.242Z,13.10
2019-03-15T16:05:17.523Z,13.10
2019-03-15T16:07:47.069Z,13.20
2019-03-15T16:10:18.354Z,13.10
2019-03-15T16:12:47.878Z,13.00
2019-03-15T16:15:19.457Z,13.10
2019-03-15T16:17:48.729Z,13.10
2019-03-15T16:20:18.443Z,13.20
2019-03-15T16:22:47.716Z,13.40
2019-03-15T16:25:16.996Z,13.40
2019-03-15T16:27:46.337Z,13.20
2019-03-15T16:30:22.714Z,13.10
2019-03-15T16:32:51.989Z,13.10
2019-03-15T16:35:21.280Z,13.10
2019-03-15T16:37:50.547Z,13.30
2019-03-15T16:40:19.832Z,13.00
2019-03-15T16:42:49.106Z,13.10
2019-03-15T16:45:30.242Z,13.10
2019-03-15T16:47:59.515Z,13.10
2019-03-15T16:50:28.792Z,13.10
2019-03-15T16:52:58.077Z,13.10
2019-03-15T16:55:27.352Z,13.00
2019-03-15T16:57:56.637Z,13.00
2019-03-15T17:00:25.946Z,12.90
2019-03-15T17:02:55.197Z,13.00
2019-03-15T17:05:24.477Z,13.10
2019-03-15T17:07:53.755Z,13.10
2019-03-15T17:10:23.025Z,13.00
2019-03-15T17:12:55.628Z,13.10
2019-03-15T17:15:28.571Z,13.10
2019-03-15T17:17:57.901Z,13.00
2019-03-15T17:20:27.201Z,13.00
2019-03-15T17:22:56.475Z,13.10
2019-03-15T17:25:25.755Z,13.00
2019-03-15T17:27:55.368Z,13.00
2019-03-15T17:30:24.672Z,13.00
2019-03-15T17:32:53.911Z,13.00
2019-03-15T17:35:23.199Z,12.90
2019-03-15T17:37:52.487Z,13.00
2019-03-15T17:40:22.508Z,12.90
2019-03-15T17:42:51.849Z,13.00
2019-03-15T17:45:21.121Z,13.10
2019-03-15T17:47:50.404Z,13.00
2019-03-15T17:50:24.799Z,13.20
2019-03-15T17:52:54.073Z,12.90
2019-03-15T17:55:23.350Z,13.00
2019-03-15T17:57:52.633Z,13.00
2019-03-15T18:00:38.589Z,13.10
2019-03-15T18:03:19.990Z,13.00
2019-03-15T18:05:39.985Z,12.90
2019-03-15T18:08:09.272Z,12.90
2019-03-15T18:10:38.620Z,13.00
2019-03-15T18:13:07.905Z,13.00
2019-03-15T18:15:37.187Z,13.00
2019-03-15T18:18:06.536Z,13.00
2019-03-15T18:20:35.878Z,12.90
2019-03-15T18:23:05.163Z,12.90
2019-03-15T18:25:34.758Z,13.00
2019-03-15T18:28:04.050Z,13.10
2019-03-15T18:30:33.564Z,13.00
2019-03-15T18:33:02.841Z,12.80
2019-03-15T18:35:33.962Z,12.80
2019-03-15T18:38:03.121Z,12.90
2019-03-15T18:40:32.397Z,12.90
2019-03-15T18:43:01.674Z,12.80
2019-03-15T18:45:30.961Z,12.80
2019-03-15T18:48:00.240Z,12.80
2019-03-15T18:50:29.525Z,12.90
2019-03-15T18:52:59.114Z,12.90
2019-03-15T18:55:28.725Z,12.80
2019-03-15T18:57:58.002Z,12.90
2019-03-15T19:00:27.308Z,13.00
2019-03-15T19:02:59.722Z,13.00
2019-03-15T19:05:27.570Z,13.10
2019-03-15T19:07:56.956Z,13.00
2019-03-15T19:10:26.577Z,13.00
2019-03-15T19:12:56.182Z,13.00
2019-03-15T19:15:25.789Z,13.00
2019-03-15T19:17:55.074Z,13.00
2019-03-15T19:20:24.360Z,12.90
2019-03-15T19:22:53.639Z,12.80
2019-03-15T19:25:23.191Z,12.80
2019-03-15T19:27:52.475Z,12.90
2019-03-15T19:30:22.631Z,12.90
2019-03-15T19:32:52.217Z,12.90
2019-03-15T19:35:21.498Z,12.80
2019-03-15T19:37:50.786Z,12.90
2019-03-15T19:40:23.009Z,12.80
2019-03-15T19:42:52.644Z,12.80
2019-03-15T19:45:21.877Z,12.80
2019-03-15T19:47:51.156Z,12.90
2019-03-15T19:50:21.845Z,12.90
2019-03-15T19:52:51.441Z,12.80
2019-03-15T19:55:20.729Z,12.80
2019-03-15T19:57:50.006Z,12.80
2019-03-15T20:00:21.668Z,12.80
2019-03-15T20:02:50.943Z,13.10
2019-03-15T20:05:20.265Z,13.00
2019-03-15T20:07:49.690Z,12.90
2019-03-15T20:10:19.124Z,12.80
2019-03-15T20:12:48.407Z,12.80
2019-03-15T20:15:18.523Z,12.60
2019-03-15T20:17:47.814Z,12.50
2019-03-15T20:20:20.167Z,12.60
2019-03-15T20:22:49.615Z,12.80
2019-03-15T20:25:19.368Z,12.80
2019-03-15T20:27:49.392Z,12.70
2019-03-15T20:30:27.002Z,12.80
2019-03-15T20:32:56.607Z,12.70
2019-03-15T20:35:26.336Z,12.80
2019-03-15T20:37:55.950Z,12.80
2019-03-15T20:40:25.235Z,12.60
2019-03-15T20:42:54.518Z,12.60
2019-03-15T20:45:27.759Z,12.70
2019-03-15T20:47:57.037Z,12.70
2019-03-15T20:50:26.320Z,12.70
2019-03-15T20:53:07.775Z,12.70
2019-03-15T20:55:28.855Z,12.80
2019-03-15T20:57:57.607Z,12.80
2019-03-15T21:00:35.515Z,12.60
2019-03-15T21:02:58.172Z,12.60
2019-03-15T21:05:27.693Z,12.70
2019-03-15T21:07:56.976Z,12.80
2019-03-15T21:10:26.923Z,12.70
2019-03-15T21:12:56.454Z,12.70
2019-03-15T21:15:25.975Z,12.60
2019-03-15T21:17:55.288Z,12.60
2019-03-15T21:20:24.911Z,12.70
2019-03-15T21:22:54.522Z,12.70
2019-03-15T21:25:23.808Z,12.60
2019-03-15T21:27:54.636Z,12.70
2019-03-15T21:30:28.110Z,12.80
2019-03-15T21:32:57.657Z,12.80
2019-03-15T21:35:27.468Z,12.80
2019-03-15T21:37:56.748Z,12.70
2019-03-15T21:40:26.050Z,12.70
2019-03-15T21:42:55.321Z,12.60
2019-03-15T21:45:24.594Z,12.70
2019-03-15T21:47:53.897Z,12.60
2019-03-15T21:50:24.193Z,12.70
2019-03-15T21:52:53.802Z,12.60
2019-03-15T21:55:23.075Z,12.60
2019-03-15T21:57:52.357Z,12.60
2019-03-15T22:00:21.908Z,12.50
2019-03-15T22:02:51.198Z,12.50
2019-03-15T22:05:20.456Z,12.50
2019-03-15T22:07:49.732Z,12.40
2019-03-15T22:10:19.005Z,12.40
2019-03-15T22:12:48.619Z,12.50
2019-03-15T22:15:18.034Z,12.50
2019-03-15T22:17:47.726Z,12.40
2019-03-15T22:20:19.743Z,12.40
2019-03-15T22:22:49.030Z,12.50
2019-03-15T22:25:18.604Z,12.50
2019-03-15T22:27:50.179Z,12.60
2019-03-15T22:30:18.886Z,12.60
2019-03-15T22:32:48.168Z,12.60
2019-03-15T22:35:17.693Z,12.50
2019-03-15T22:37:46.979Z,12.70
2019-03-15T22:40:16.554Z,12.60
2019-03-15T22:42:45.840Z,12.50
2019-03-15T22:45:15.583Z,12.70
2019-03-15T22:47:44.864Z,12.70
2019-03-15T22:50:15.275Z,12.70
2019-03-15T22:52:44.559Z,12.60
2019-03-15T22:55:13.925Z,12.70
2019-03-15T22:57:43.496Z,12.40
2019-03-15T23:00:19.155Z,12.50
2019-03-15T23:02:48.938Z,12.60
2019-03-15T23:05:18.210Z,12.40
2019-03-15T23:07:47.488Z,12.50
2019-03-15T23:10:16.765Z,12.40
2019-03-15T23:12:46.047Z,12.50
2019-03-15T23:15:15.670Z,12.50
2019-03-15T23:17:45.272Z,12.60
2019-03-15T23:20:14.930Z,12.60
2019-03-15T23:22:44.212Z,12.60
2019-03-15T23:25:13.581Z,12.60
2019-03-15T23:27:42.870Z,12.40
2019-03-15T23:30:17.062Z,12.40
2019-03-15T23:32:46.709Z,12.30
2019-03-15T23:35:15.980Z,12.20
2019-03-15T23:37:45.270Z,12.10
2019-03-15T23:40:15.320Z,12.00
2019-03-15T23:42:44.600Z,12.10
2019-03-15T23:45:13.883Z,12.10
2019-03-15T23:47:43.156Z,12.30
2019-03-15T23:50:14.479Z,12.20
2019-03-15T23:52:43.762Z,12.20
2019-03-15T23:55:13.488Z,12.10
2019-03-15T23:57:42.764Z,12.00
